| time (UTC) | temp C | wind direction | speed KPH | gust KPH | rain 1hr cm | rain 24hr cm | rain mn cm | humidity % | barometer mb |
| 20260505040017 | 9 | 233 | 4.8 | 9.7 | 0.08 | 0.23 | 0.23 | 83 | 1011.4 |
| 20260505035016 | 9 | 177 | 4.8 | 9.7 | 0.10 | 0.23 | 0.23 | 83 | 1011.4 |
| 20260505034017 | 9 | 230 | 4.8 | 9.7 | 0.10 | 0.23 | 0.23 | 84 | 1011.5 |
| 20260505033017 | 9 | 238 | 4.8 | 8.0 | 0.10 | 0.23 | 0.23 | 84 | 1011.6 |
| 20260505032017 | 10 | 238 | 4.8 | 9.7 | 0.10 | 0.20 | 0.20 | 83 | 1011.3 |
| 20260505031016 | 10 | 224 | 4.8 | 9.7 | 0.05 | 0.18 | 0.18 | 82 | 1011.3 |
| 20260505030037 | 10 | 243 | 4.8 | 9.7 | 0.05 | 0.15 | 0.15 | 81 | 1011.1 |
| 20260505025017 | 10 | 233 | 3.2 | 8.0 | 0.03 | 0.15 | 0.15 | 77 | 1010.9 |
| 20260505024018 | 11 | 253 | 3.2 | 11.3 | 0.03 | 0.13 | 0.13 | 73 | 1010.8 |
| 20260505023016 | 11 | 284 | 3.2 | 9.7 | 0.00 | 0.13 | 0.13 | 67 | 1010.7 |
| 20260505022017 | 11 | 260 | 1.6 | 6.4 | 0.00 | 0.10 | 0.10 | 67 | 1010.6 |
| 20260505021037 | 11 | 283 | 1.6 | 4.8 | 0.00 | 0.10 | 0.10 | 69 | 1010.5 |
| 20260505020018 | 11 | 292 | 3.2 | 8.0 | 0.00 | 0.10 | 0.10 | 69 | 1010.7 |
| 20260505015016 | 11 | 298 | 3.2 | 8.0 | 0.00 | 0.10 | 0.10 | 68 | 1010.5 |
| 20260505014017 | 11 | 293 | 4.8 | 11.3 | 0.00 | 0.10 | 0.10 | 66 | 1010.4 |
| 20260505013017 | 11 | 320 | 3.2 | 9.7 | 0.00 | 0.10 | 0.10 | 64 | 1010.3 |
| 20260505012036 | 12 | 302 | 4.8 | 14.5 | 0.00 | 0.10 | 0.10 | 63 | 1010.5 |
| 20260505011016 | 12 | 296 | 6.4 | 12.9 | 0.00 | 0.10 | 0.10 | 62 | 1010.4 |
| 20260505010017 | 12 | 309 | 6.4 | 14.5 | 0.00 | 0.10 | 0.10 | 60 | 1010.4 |
| 20260505005017 | 13 | 293 | 6.4 | 14.5 | 0.00 | 0.10 | 0.10 | 60 | 1010.2 |
| 20260505004016 | 13 | 311 | 6.4 | 17.7 | 0.00 | 0.10 | 0.10 | 54 | 1010.3 |
| 20260505003016 | 14 | 322 | 0.0 | 3.2 | 0.00 | 0.10 | 0.10 | 55 | 1010.0 |
| 20260505002017 | 14 | 312 | 1.6 | 6.4 | 0.00 | 0.10 | 0.10 | 59 | 1009.9 |
| 20260505001037 | 14 | 294 | 1.6 | 6.4 | 0.00 | 0.10 | 0.10 | 62 | 1009.9 |
| 20260505000018 | 14 | 294 | 1.6 | 4.8 | 0.03 | 0.10 | 0.10 | 61 | 1009.7 |
| 20260504235016 | 14 | 316 | 0.0 | 3.2 | 0.05 | 0.10 | 0.10 | 56 | 1009.7 |
| 20260504234017 | 13 | 182 | 1.6 | 3.2 | 0.05 | 0.10 | 0.10 | 61 | 1009.6 |
| 20260504233017 | 13 | 48 | 3.2 | 6.4 | 0.05 | 0.10 | 0.10 | 66 | 1009.5 |
| 20260504232036 | 12 | 297 | 1.6 | 6.4 | 0.05 | 0.10 | 0.10 | 70 | 1009.9 |
| 20260504231016 | 13 | 21 | 3.2 | 9.7 | 0.03 | 0.10 | 0.10 | 62 | 1010.0 |
| 20260504230017 | 14 | 290 | 6.4 | 16.1 | 0.00 | 0.08 | 0.08 | 57 | 1009.8 |
| 20260504225017 | 16 | 272 | 1.6 | 6.4 | 0.00 | 0.05 | 0.05 | 43 | 1009.6 |
| 20260504224016 | 16 | 298 | 1.6 | 6.4 | 0.00 | 0.05 | 0.05 | 39 | 1009.1 |
| 20260504223036 | 16 | 6 | 1.6 | 6.4 | 0.00 | 0.05 | 0.05 | 39 | 1008.8 |
| 20260504222017 | 16 | 352 | 3.2 | 6.4 | 0.03 | 0.05 | 0.05 | 40 | 1008.7 |
| 20260504221017 | 16 | 25 | 3.2 | 9.7 | 0.05 | 0.05 | 0.05 | 42 | 1008.2 |
| 20260504220016 | 16 | 48 | 3.2 | 11.3 | 0.05 | 0.05 | 0.05 | 45 | 1007.8 |
| 20260504215016 | 16 | 49 | 4.8 | 14.5 | 0.05 | 0.05 | 0.05 | 47 | 1008.1 |
| 20260504214037 | 14 | 38 | 3.2 | 8.0 | 0.05 | 0.05 | 0.05 | 52 | 1008.3 |
| 20260504213018 | 13 | 49 | 4.8 | 9.7 | 0.05 | 0.05 | 0.05 | 52 | 1009.2 |
| 20260504212016 | 14 | 356 | 1.6 | 8.0 | 0.03 | 0.03 | 0.03 | 51 | 1009.8 |
| 20260504211016 | 15 | 25 | 4.8 | 17.7 | 0.00 | 0.00 | 0.00 | 47 | 1010.2 |
| 20260504210037 | 16 | 343 | 1.6 | 8.0 | 0.00 | 0.00 | 0.00 | 46 | 1009.8 |
| 20260504205017 | 17 | 342 | 4.8 | 17.7 | 0.00 | 0.00 | 0.00 | 35 | 1009.3 |
| 20260504204016 | 17 | 32 | 6.4 | 16.1 | 0.00 | 0.00 | 0.00 | 39 | 1008.9 |
| 20260504203017 | 18 | 19 | 6.4 | 17.7 | 0.00 | 0.00 | 0.00 | 31 | 1008.1 |
| 20260504202017 | 19 | 26 | 8.0 | 24.1 | 0.00 | 0.00 | 0.00 | 27 | 1007.7 |
| 20260504201037 | 22 | 43 | 6.4 | 20.9 | 0.00 | 0.00 | 0.00 | 22 | 1007.8 |
| 20260504200016 | 22 | 28 | 4.8 | 9.7 | 0.00 | 0.00 | 0.00 | 22 | 1007.9 |
| 20260504195016 | 22 | 318 | 4.8 | 9.7 | 0.00 | 0.00 | 0.00 | 22 | 1007.7 |
| 20260504194018 | 22 | 299 | 4.8 | 17.7 | 0.00 | 0.00 | 0.00 | 22 | 1007.7 |
| 20260504193017 | 24 | 337 | 4.8 | 9.7 | 0.00 | 0.00 | 0.00 | 21 | 1007.7 |
| 20260504192036 | 23 | 285 | 4.8 | 12.9 | 0.00 | 0.00 | 0.00 | 21 | 1007.6 |
| 20260504191016 | 22 | 282 | 6.4 | 17.7 | 0.00 | 0.00 | 0.00 | 22 | 1007.6 |
| 20260504190017 | 22 | 291 | 6.4 | 14.5 | 0.00 | 0.00 | 0.00 | 21 | 1007.8 |
| 20260504185018 | 22 | 285 | 6.4 | 17.7 | 0.00 | 0.00 | 0.00 | 22 | 1007.8 |
| 20260504184016 | 22 | 281 | 8.0 | 27.4 | 0.00 | 0.00 | 0.00 | 22 | 1007.9 |
| 20260504183036 | 22 | 288 | 6.4 | 17.7 | 0.00 | 0.00 | 0.00 | 22 | 1008.2 |
| 20260504182017 | 22 | 252 | 6.4 | 33.8 | 0.00 | 0.00 | 0.00 | 22 | 1008.3 |
| 20260504181017 | 21 | 273 | 4.8 | 17.7 | 0.00 | 0.00 | 0.00 | 23 | 1008.5 |
| 20260504180016 | 21 | 269 | 6.4 | 17.7 | 0.00 | 0.00 | 0.00 | 23 | 1008.6 |
| 20260504175036 | 20 | 253 | 6.4 | 24.1 | 0.00 | 0.00 | 0.00 | 24 | 1008.9 |
| 20260504174017 | 20 | 244 | 4.8 | 12.9 | 0.00 | 0.00 | 0.00 | 26 | 1009.1 |
| 20260504173017 | 19 | 256 | 6.4 | 20.9 | 0.00 | 0.00 | 0.00 | 26 | 1009.0 |
| 20260504172016 | 19 | 258 | 4.8 | 9.7 | 0.00 | 0.00 | 0.00 | 26 | 1009.1 |
| 20260504171016 | 18 | 246 | 6.4 | 16.1 | 0.00 | 0.00 | 0.00 | 27 | 1009.1 |
| 20260504151017 | 17 | 247 | 4.8 | 11.3 | 0.00 | 0.00 | 0.00 | 27 | 1009.3 |
| 20260504141016 | 12 | 238 | 1.6 | 6.4 | 0.00 | 0.00 | 0.00 | 36 | 1009.5 |
| 20260504081017 | 7 | 308 | 0.0 | 3.2 | 0.00 | 0.00 | 0.00 | 41 | 1010.7 |
| 20260504050017 | 15 | 9 | 3.2 | 8.0 | 0.00 | 0.00 | 0.00 | 29 | 1011.4 |
| 20260504045016 | 15 | 15 | 1.6 | 8.0 | 0.00 | 0.00 | 0.00 | 28 | 1011.2 |
| 20260504044036 | 16 | 352 | 3.2 | 6.4 | 0.00 | 0.00 | 0.00 | 25 | 1011.2 |
| 20260504043017 | 16 | 319 | 3.2 | 14.5 | 0.00 | 0.00 | 0.00 | 25 | 1011.2 |
| 20260504042017 | 15 | 300 | 3.2 | 11.3 | 0.00 | 0.00 | 0.00 | 29 | 1011.0 |
| 20260504041016 | 15 | 269 | 1.6 | 8.0 | 0.00 | 0.00 | 0.00 | 29 | 1011.0 |